sensor_id;sensor_type;location;lat;lon;timestamp;P1;durP1;ratioP1;P2;durP2;ratioP2
61702;SDS011;47622;47.726;3.298;2023-02-22T00:00:50;18.73;;;9.80;;
61702;SDS011;47622;47.726;3.298;2023-02-22T00:03:21;18.60;;;10.38;;
61702;SDS011;47622;47.726;3.298;2023-02-22T00:05:49;17.20;;;10.50;;
61702;SDS011;47622;47.726;3.298;2023-02-22T00:08:18;17.05;;;10.68;;
61702;SDS011;47622;47.726;3.298;2023-02-22T00:10:46;19.60;;;10.48;;
61702;SDS011;47622;47.726;3.298;2023-02-22T00:13:15;16.63;;;10.75;;
61702;SDS011;47622;47.726;3.298;2023-02-22T00:15:42;19.15;;;11.63;;
61702;SDS011;47622;47.726;3.298;2023-02-22T00:18:09;18.63;;;11.35;;
61702;SDS011;47622;47.726;3.298;2023-02-22T00:20:37;15.88;;;11.18;;
61702;SDS011;47622;47.726;3.298;2023-02-22T00:23:07;20.17;;;12.02;;
61702;SDS011;47622;47.726;3.298;2023-02-22T00:25:38;20.70;;;11.43;;
61702;SDS011;47622;47.726;3.298;2023-02-22T00:28:03;23.58;;;12.52;;
61702;SDS011;47622;47.726;3.298;2023-02-22T00:30:29;20.45;;;12.00;;
61702;SDS011;47622;47.726;3.298;2023-02-22T00:32:56;19.00;;;10.77;;
61702;SDS011;47622;47.726;3.298;2023-02-22T00:35:24;17.80;;;9.98;;
61702;SDS011;47622;47.726;3.298;2023-02-22T00:37:51;18.67;;;11.38;;
61702;SDS011;47622;47.726;3.298;2023-02-22T00:40:20;16.40;;;10.63;;
61702;SDS011;47622;47.726;3.298;2023-02-22T00:42:48;17.65;;;10.25;;
61702;SDS011;47622;47.726;3.298;2023-02-22T00:45:15;18.92;;;10.45;;
61702;SDS011;47622;47.726;3.298;2023-02-22T00:47:42;21.95;;;11.13;;
61702;SDS011;47622;47.726;3.298;2023-02-22T00:50:08;18.42;;;10.80;;
61702;SDS011;47622;47.726;3.298;2023-02-22T00:52:35;16.23;;;10.43;;
61702;SDS011;47622;47.726;3.298;2023-02-22T00:55:01;16.63;;;10.02;;
61702;SDS011;47622;47.726;3.298;2023-02-22T00:57:30;19.15;;;11.88;;
61702;SDS011;47622;47.726;3.298;2023-02-22T00:59:55;20.05;;;11.20;;
61702;SDS011;47622;47.726;3.298;2023-02-22T01:02:21;22.83;;;11.60;;
61702;SDS011;47622;47.726;3.298;2023-02-22T01:04:47;20.98;;;12.57;;
61702;SDS011;47622;47.726;3.298;2023-02-22T01:07:12;19.55;;;12.45;;
61702;SDS011;47622;47.726;3.298;2023-02-22T01:09:38;19.48;;;11.52;;
61702;SDS011;47622;47.726;3.298;2023-02-22T01:12:05;25.63;;;13.75;;
61702;SDS011;47622;47.726;3.298;2023-02-22T01:14:32;19.77;;;11.63;;
61702;SDS011;47622;47.726;3.298;2023-02-22T01:16:58;19.38;;;11.30;;
61702;SDS011;47622;47.726;3.298;2023-02-22T01:19:23;21.98;;;11.38;;
61702;SDS011;47622;47.726;3.298;2023-02-22T01:21:49;24.67;;;11.00;;
61702;SDS011;47622;47.726;3.298;2023-02-22T01:24:15;15.15;;;10.50;;
61702;SDS011;47622;47.726;3.298;2023-02-22T01:26:42;18.50;;;10.50;;
61702;SDS011;47622;47.726;3.298;2023-02-22T01:29:13;22.05;;;12.20;;
61702;SDS011;47622;47.726;3.298;2023-02-22T01:31:40;18.05;;;10.02;;
61702;SDS011;47622;47.726;3.298;2023-02-22T01:34:10;18.20;;;11.20;;
61702;SDS011;47622;47.726;3.298;2023-02-22T01:36:37;18.48;;;10.43;;
61702;SDS011;47622;47.726;3.298;2023-02-22T01:39:04;17.17;;;11.05;;
61702;SDS011;47622;47.726;3.298;2023-02-22T01:41:30;16.58;;;10.18;;
61702;SDS011;47622;47.726;3.298;2023-02-22T01:43:56;14.38;;;10.63;;
61702;SDS011;47622;47.726;3.298;2023-02-22T01:46:23;18.60;;;11.43;;
61702;SDS011;47622;47.726;3.298;2023-02-22T01:48:56;20.02;;;11.85;;
61702;SDS011;47622;47.726;3.298;2023-02-22T01:51:35;18.02;;;10.68;;
61702;SDS011;47622;47.726;3.298;2023-02-22T01:54:14;14.48;;;9.68;;
61702;SDS011;47622;47.726;3.298;2023-02-22T01:59:48;17.95;;;11.50;;
61702;SDS011;47622;47.726;3.298;2023-02-22T02:02:17;18.70;;;11.98;;
61702;SDS011;47622;47.726;3.298;2023-02-22T02:04:46;17.52;;;11.52;;
61702;SDS011;47622;47.726;3.298;2023-02-22T02:07:13;19.15;;;10.88;;
61702;SDS011;47622;47.726;3.298;2023-02-22T02:09:57;19.40;;;10.82;;
61702;SDS011;47622;47.726;3.298;2023-02-22T02:12:26;14.00;;;9.70;;
61702;SDS011;47622;47.726;3.298;2023-02-22T02:15:15;15.63;;;10.35;;
61702;SDS011;47622;47.726;3.298;2023-02-22T02:17:42;15.40;;;9.93;;
61702;SDS011;47622;47.726;3.298;2023-02-22T02:22:40;13.23;;;8.82;;
61702;SDS011;47622;47.726;3.298;2023-02-22T02:31:06;20.88;;;10.82;;
61702;SDS011;47622;47.726;3.298;2023-02-22T02:37:15;16.95;;;10.93;;
61702;SDS011;47622;47.726;3.298;2023-02-22T02:42:33;17.95;;;10.15;;
61702;SDS011;47622;47.726;3.298;2023-02-22T02:45:10;19.40;;;10.95;;
61702;SDS011;47622;47.726;3.298;2023-02-22T02:47:44;16.40;;;11.00;;
61702;SDS011;47622;47.726;3.298;2023-02-22T02:50:26;19.17;;;10.82;;
61702;SDS011;47622;47.726;3.298;2023-02-22T02:52:57;17.85;;;10.48;;
61702;SDS011;47622;47.726;3.298;2023-02-22T02:55:28;15.88;;;10.45;;
61702;SDS011;47622;47.726;3.298;2023-02-22T02:57:55;20.15;;;11.05;;
61702;SDS011;47622;47.726;3.298;2023-02-22T03:00:21;14.93;;;9.85;;
61702;SDS011;47622;47.726;3.298;2023-02-22T03:09:34;21.73;;;11.15;;
61702;SDS011;47622;47.726;3.298;2023-02-22T03:15:32;22.45;;;10.23;;
61702;SDS011;47622;47.726;3.298;2023-02-22T03:18:08;17.88;;;10.80;;
61702;SDS011;47622;47.726;3.298;2023-02-22T03:23:36;15.70;;;10.48;;
61702;SDS011;47622;47.726;3.298;2023-02-22T03:29:37;16.20;;;10.10;;
61702;SDS011;47622;47.726;3.298;2023-02-22T03:32:08;14.98;;;10.57;;
61702;SDS011;47622;47.726;3.298;2023-02-22T03:34:42;17.23;;;10.85;;
61702;SDS011;47622;47.726;3.298;2023-02-22T03:37:16;20.13;;;10.48;;
61702;SDS011;47622;47.726;3.298;2023-02-22T03:39:46;16.77;;;11.07;;
61702;SDS011;47622;47.726;3.298;2023-02-22T03:42:15;17.80;;;10.70;;
61702;SDS011;47622;47.726;3.298;2023-02-22T03:44:45;16.13;;;10.88;;
61702;SDS011;47622;47.726;3.298;2023-02-22T03:47:17;16.00;;;10.63;;
61702;SDS011;47622;47.726;3.298;2023-02-22T03:49:58;17.27;;;10.40;;
61702;SDS011;47622;47.726;3.298;2023-02-22T03:52:45;16.58;;;10.63;;
61702;SDS011;47622;47.726;3.298;2023-02-22T03:55:12;15.43;;;10.45;;
61702;SDS011;47622;47.726;3.298;2023-02-22T03:57:43;15.70;;;10.60;;
61702;SDS011;47622;47.726;3.298;2023-02-22T04:00:13;14.77;;;10.07;;
61702;SDS011;47622;47.726;3.298;2023-02-22T04:02:42;15.75;;;10.70;;
61702;SDS011;47622;47.726;3.298;2023-02-22T04:05:08;14.45;;;10.50;;
61702;SDS011;47622;47.726;3.298;2023-02-22T04:07:33;16.60;;;10.95;;
61702;SDS011;47622;47.726;3.298;2023-02-22T04:09:59;18.35;;;10.60;;
61702;SDS011;47622;47.726;3.298;2023-02-22T04:12:26;16.95;;;11.10;;
61702;SDS011;47622;47.726;3.298;2023-02-22T04:14:52;16.15;;;10.68;;
61702;SDS011;47622;47.726;3.298;2023-02-22T04:17:18;18.83;;;10.30;;
61702;SDS011;47622;47.726;3.298;2023-02-22T04:19:43;15.88;;;10.82;;
61702;SDS011;47622;47.726;3.298;2023-02-22T04:22:10;16.15;;;10.77;;
61702;SDS011;47622;47.726;3.298;2023-02-22T04:24:36;14.35;;;10.18;;
61702;SDS011;47622;47.726;3.298;2023-02-22T04:27:01;16.92;;;11.20;;
61702;SDS011;47622;47.726;3.298;2023-02-22T04:29:27;16.20;;;10.68;;
61702;SDS011;47622;47.726;3.298;2023-02-22T04:31:54;18.90;;;10.35;;
61702;SDS011;47622;47.726;3.298;2023-02-22T04:34:20;17.40;;;11.30;;
61702;SDS011;47622;47.726;3.298;2023-02-22T04:36:45;13.68;;;9.85;;
61702;SDS011;47622;47.726;3.298;2023-02-22T04:39:11;16.00;;;10.07;;
61702;SDS011;47622;47.726;3.298;2023-02-22T04:41:37;17.50;;;10.10;;
61702;SDS011;47622;47.726;3.298;2023-02-22T04:44:02;15.10;;;9.35;;
61702;SDS011;47622;47.726;3.298;2023-02-22T04:46:28;15.68;;;10.43;;
61702;SDS011;47622;47.726;3.298;2023-02-22T04:48:54;17.92;;;10.77;;
61702;SDS011;47622;47.726;3.298;2023-02-22T04:51:21;16.25;;;11.20;;
61702;SDS011;47622;47.726;3.298;2023-02-22T04:53:48;15.57;;;10.70;;
61702;SDS011;47622;47.726;3.298;2023-02-22T04:56:15;14.43;;;10.02;;
61702;SDS011;47622;47.726;3.298;2023-02-22T04:58:42;16.20;;;10.77;;
61702;SDS011;47622;47.726;3.298;2023-02-22T05:01:07;13.48;;;10.27;;
61702;SDS011;47622;47.726;3.298;2023-02-22T05:03:33;19.10;;;11.63;;
61702;SDS011;47622;47.726;3.298;2023-02-22T05:06:01;16.52;;;11.73;;
61702;SDS011;47622;47.726;3.298;2023-02-22T05:08:27;22.80;;;12.27;;
61702;SDS011;47622;47.726;3.298;2023-02-22T05:10:53;16.88;;;11.45;;
61702;SDS011;47622;47.726;3.298;2023-02-22T05:13:19;20.58;;;12.75;;
61702;SDS011;47622;47.726;3.298;2023-02-22T05:15:45;17.85;;;11.52;;
61702;SDS011;47622;47.726;3.298;2023-02-22T05:18:12;18.10;;;10.75;;
61702;SDS011;47622;47.726;3.298;2023-02-22T05:20:38;16.05;;;10.13;;
61702;SDS011;47622;47.726;3.298;2023-02-22T05:23:03;17.85;;;10.77;;
61702;SDS011;47622;47.726;3.298;2023-02-22T05:25:29;18.48;;;10.68;;
61702;SDS011;47622;47.726;3.298;2023-02-22T05:27:57;17.38;;;10.35;;
61702;SDS011;47622;47.726;3.298;2023-02-22T05:30:25;16.33;;;10.70;;
61702;SDS011;47622;47.726;3.298;2023-02-22T05:32:54;15.73;;;10.43;;
61702;SDS011;47622;47.726;3.298;2023-02-22T05:35:20;17.00;;;11.30;;
61702;SDS011;47622;47.726;3.298;2023-02-22T05:37:47;22.75;;;12.63;;
61702;SDS011;47622;47.726;3.298;2023-02-22T05:40:15;18.20;;;11.45;;
61702;SDS011;47622;47.726;3.298;2023-02-22T05:42:46;17.52;;;11.65;;
61702;SDS011;47622;47.726;3.298;2023-02-22T05:45:13;15.65;;;10.88;;
61702;SDS011;47622;47.726;3.298;2023-02-22T05:47:39;15.32;;;11.40;;
61702;SDS011;47622;47.726;3.298;2023-02-22T05:50:05;16.52;;;11.35;;
61702;SDS011;47622;47.726;3.298;2023-02-22T05:52:32;15.27;;;10.35;;
61702;SDS011;47622;47.726;3.298;2023-02-22T05:54:57;14.80;;;11.50;;
61702;SDS011;47622;47.726;3.298;2023-02-22T05:57:23;13.82;;;10.60;;
61702;SDS011;47622;47.726;3.298;2023-02-22T05:59:49;14.68;;;11.00;;
61702;SDS011;47622;47.726;3.298;2023-02-22T06:02:14;16.88;;;10.32;;
61702;SDS011;47622;47.726;3.298;2023-02-22T06:04:43;14.55;;;9.98;;
61702;SDS011;47622;47.726;3.298;2023-02-22T06:07:09;18.00;;;10.65;;
61702;SDS011;47622;47.726;3.298;2023-02-22T06:09:35;16.67;;;9.98;;
61702;SDS011;47622;47.726;3.298;2023-02-22T06:12:01;17.30;;;10.43;;
61702;SDS011;47622;47.726;3.298;2023-02-22T06:14:26;19.95;;;12.25;;
61702;SDS011;47622;47.726;3.298;2023-02-22T06:16:53;20.27;;;13.15;;
61702;SDS011;47622;47.726;3.298;2023-02-22T06:19:19;21.52;;;13.93;;
61702;SDS011;47622;47.726;3.298;2023-02-22T06:21:54;21.98;;;13.23;;
61702;SDS011;47622;47.726;3.298;2023-02-22T06:24:21;18.70;;;12.55;;
61702;SDS011;47622;47.726;3.298;2023-02-22T06:26:57;22.45;;;13.18;;
61702;SDS011;47622;47.726;3.298;2023-02-22T06:29:24;23.83;;;13.18;;
61702;SDS011;47622;47.726;3.298;2023-02-22T06:31:51;18.88;;;12.50;;
61702;SDS011;47622;47.726;3.298;2023-02-22T06:34:16;22.42;;;12.80;;
61702;SDS011;47622;47.726;3.298;2023-02-22T06:36:43;20.90;;;14.18;;
61702;SDS011;47622;47.726;3.298;2023-02-22T06:39:12;22.48;;;13.60;;
61702;SDS011;47622;47.726;3.298;2023-02-22T06:41:39;24.08;;;16.20;;
61702;SDS011;47622;47.726;3.298;2023-02-22T06:44:09;29.10;;;18.50;;
61702;SDS011;47622;47.726;3.298;2023-02-22T06:46:36;30.02;;;17.90;;
61702;SDS011;47622;47.726;3.298;2023-02-22T06:49:02;25.88;;;15.88;;
61702;SDS011;47622;47.726;3.298;2023-02-22T06:51:29;24.77;;;16.20;;
61702;SDS011;47622;47.726;3.298;2023-02-22T06:53:55;27.95;;;15.48;;
61702;SDS011;47622;47.726;3.298;2023-02-22T06:56:21;24.15;;;17.15;;
61702;SDS011;47622;47.726;3.298;2023-02-22T06:58:46;28.45;;;17.20;;
61702;SDS011;47622;47.726;3.298;2023-02-22T07:01:13;29.38;;;17.75;;
61702;SDS011;47622;47.726;3.298;2023-02-22T07:03:39;25.63;;;16.02;;
61702;SDS011;47622;47.726;3.298;2023-02-22T07:06:05;29.92;;;17.88;;
61702;SDS011;47622;47.726;3.298;2023-02-22T07:08:31;30.33;;;16.65;;
61702;SDS011;47622;47.726;3.298;2023-02-22T07:10:57;26.80;;;16.05;;
61702;SDS011;47622;47.726;3.298;2023-02-22T07:13:22;33.03;;;18.35;;
61702;SDS011;47622;47.726;3.298;2023-02-22T07:15:48;26.48;;;17.10;;
61702;SDS011;47622;47.726;3.298;2023-02-22T07:18:14;25.60;;;15.98;;
61702;SDS011;47622;47.726;3.298;2023-02-22T07:20:40;26.02;;;16.92;;
61702;SDS011;47622;47.726;3.298;2023-02-22T07:23:06;28.17;;;17.52;;
61702;SDS011;47622;47.726;3.298;2023-02-22T07:25:32;30.15;;;17.63;;
61702;SDS011;47622;47.726;3.298;2023-02-22T07:27:58;30.05;;;18.10;;
61702;SDS011;47622;47.726;3.298;2023-02-22T07:30:31;30.80;;;17.75;;
61702;SDS011;47622;47.726;3.298;2023-02-22T07:32:59;26.55;;;17.15;;
61702;SDS011;47622;47.726;3.298;2023-02-22T07:35:29;30.67;;;17.20;;
61702;SDS011;47622;47.726;3.298;2023-02-22T07:37:57;27.85;;;16.85;;
61702;SDS011;47622;47.726;3.298;2023-02-22T07:40:23;25.50;;;17.80;;
61702;SDS011;47622;47.726;3.298;2023-02-22T07:42:51;29.33;;;17.38;;
61702;SDS011;47622;47.726;3.298;2023-02-22T07:45:18;31.15;;;17.83;;
61702;SDS011;47622;47.726;3.298;2023-02-22T07:47:47;27.75;;;17.73;;
61702;SDS011;47622;47.726;3.298;2023-02-22T07:50:16;34.45;;;18.38;;
61702;SDS011;47622;47.726;3.298;2023-02-22T07:52:46;32.50;;;18.55;;
61702;SDS011;47622;47.726;3.298;2023-02-22T07:55:14;30.20;;;18.27;;
61702;SDS011;47622;47.726;3.298;2023-02-22T07:57:42;34.47;;;18.45;;
61702;SDS011;47622;47.726;3.298;2023-02-22T08:00:11;31.95;;;18.80;;
61702;SDS011;47622;47.726;3.298;2023-02-22T08:02:42;34.55;;;20.13;;
61702;SDS011;47622;47.726;3.298;2023-02-22T08:05:08;33.17;;;19.63;;
61702;SDS011;47622;47.726;3.298;2023-02-22T08:07:37;34.00;;;20.02;;
61702;SDS011;47622;47.726;3.298;2023-02-22T08:10:04;33.40;;;19.45;;
61702;SDS011;47622;47.726;3.298;2023-02-22T08:12:32;33.25;;;19.23;;
61702;SDS011;47622;47.726;3.298;2023-02-22T08:14:58;30.40;;;19.05;;
61702;SDS011;47622;47.726;3.298;2023-02-22T08:17:24;34.65;;;19.40;;
61702;SDS011;47622;47.726;3.298;2023-02-22T08:19:50;36.90;;;20.38;;
61702;SDS011;47622;47.726;3.298;2023-02-22T08:22:15;30.83;;;18.30;;
61702;SDS011;47622;47.726;3.298;2023-02-22T08:24:41;38.97;;;20.88;;
61702;SDS011;47622;47.726;3.298;2023-02-22T08:27:07;35.30;;;19.90;;
61702;SDS011;47622;47.726;3.298;2023-02-22T08:29:32;33.42;;;20.98;;
61702;SDS011;47622;47.726;3.298;2023-02-22T08:32:01;36.50;;;20.85;;
61702;SDS011;47622;47.726;3.298;2023-02-22T08:34:27;36.88;;;20.40;;
61702;SDS011;47622;47.726;3.298;2023-02-22T08:36:53;38.97;;;21.27;;
61702;SDS011;47622;47.726;3.298;2023-02-22T08:39:18;37.00;;;22.08;;
61702;SDS011;47622;47.726;3.298;2023-02-22T08:41:44;40.55;;;21.38;;
61702;SDS011;47622;47.726;3.298;2023-02-22T08:44:10;34.65;;;20.40;;
61702;SDS011;47622;47.726;3.298;2023-02-22T08:46:36;35.33;;;20.83;;
61702;SDS011;47622;47.726;3.298;2023-02-22T08:49:03;38.03;;;20.77;;
61702;SDS011;47622;47.726;3.298;2023-02-22T08:51:29;38.60;;;20.73;;
61702;SDS011;47622;47.726;3.298;2023-02-22T08:53:59;35.33;;;19.90;;
61702;SDS011;47622;47.726;3.298;2023-02-22T08:56:31;43.08;;;21.70;;
61702;SDS011;47622;47.726;3.298;2023-02-22T08:58:57;40.72;;;21.08;;
61702;SDS011;47622;47.726;3.298;2023-02-22T09:01:24;36.92;;;19.88;;
61702;SDS011;47622;47.726;3.298;2023-02-22T09:03:53;33.33;;;20.38;;
61702;SDS011;47622;47.726;3.298;2023-02-22T09:06:20;37.13;;;20.95;;
61702;SDS011;47622;47.726;3.298;2023-02-22T09:08:47;37.00;;;21.75;;
61702;SDS011;47622;47.726;3.298;2023-02-22T09:11:13;37.03;;;21.05;;
61702;SDS011;47622;47.726;3.298;2023-02-22T09:13:39;32.10;;;19.88;;
61702;SDS011;47622;47.726;3.298;2023-02-22T09:16:05;35.42;;;20.75;;
61702;SDS011;47622;47.726;3.298;2023-02-22T09:18:31;41.60;;;22.85;;
61702;SDS011;47622;47.726;3.298;2023-02-22T09:20:58;40.05;;;22.52;;
61702;SDS011;47622;47.726;3.298;2023-02-22T09:23:25;33.58;;;20.23;;
61702;SDS011;47622;47.726;3.298;2023-02-22T09:25:52;36.00;;;20.52;;
61702;SDS011;47622;47.726;3.298;2023-02-22T09:28:19;35.08;;;20.23;;
61702;SDS011;47622;47.726;3.298;2023-02-22T09:30:44;34.10;;;19.98;;
61702;SDS011;47622;47.726;3.298;2023-02-22T09:33:12;33.78;;;19.83;;
61702;SDS011;47622;47.726;3.298;2023-02-22T09:35:42;39.10;;;19.60;;
61702;SDS011;47622;47.726;3.298;2023-02-22T09:38:11;30.98;;;18.10;;
61702;SDS011;47622;47.726;3.298;2023-02-22T09:40:44;33.53;;;18.88;;
61702;SDS011;47622;47.726;3.298;2023-02-22T09:46:04;31.95;;;18.80;;
61702;SDS011;47622;47.726;3.298;2023-02-22T09:48:46;33.05;;;18.83;;
61702;SDS011;47622;47.726;3.298;2023-02-22T09:51:18;42.35;;;19.58;;
61702;SDS011;47622;47.726;3.298;2023-02-22T09:53:46;31.08;;;17.88;;
61702;SDS011;47622;47.726;3.298;2023-02-22T09:56:15;31.33;;;18.15;;
61702;SDS011;47622;47.726;3.298;2023-02-22T09:58:44;35.67;;;18.77;;
61702;SDS011;47622;47.726;3.298;2023-02-22T10:03:55;35.90;;;19.30;;
61702;SDS011;47622;47.726;3.298;2023-02-22T10:09:20;33.60;;;18.65;;
61702;SDS011;47622;47.726;3.298;2023-02-22T10:19:48;31.25;;;17.98;;
61702;SDS011;47622;47.726;3.298;2023-02-22T10:22:53;27.35;;;16.42;;
61702;SDS011;47622;47.726;3.298;2023-02-22T10:25:33;29.73;;;17.17;;
61702;SDS011;47622;47.726;3.298;2023-02-22T10:28:12;30.88;;;17.65;;
61702;SDS011;47622;47.726;3.298;2023-02-22T10:35:56;34.63;;;17.80;;
61702;SDS011;47622;47.726;3.298;2023-02-22T10:38:26;28.77;;;17.42;;
61702;SDS011;47622;47.726;3.298;2023-02-22T10:43:38;28.85;;;16.77;;
61702;SDS011;47622;47.726;3.298;2023-02-22T10:46:06;29.77;;;17.20;;
61702;SDS011;47622;47.726;3.298;2023-02-22T10:48:37;26.00;;;16.30;;
61702;SDS011;47622;47.726;3.298;2023-02-22T10:51:06;32.25;;;16.90;;
61702;SDS011;47622;47.726;3.298;2023-02-22T10:53:34;28.48;;;15.82;;
61702;SDS011;47622;47.726;3.298;2023-02-22T10:56:11;28.38;;;15.90;;
61702;SDS011;47622;47.726;3.298;2023-02-22T10:58:54;30.45;;;17.15;;
61702;SDS011;47622;47.726;3.298;2023-02-22T11:01:33;26.08;;;16.27;;
61702;SDS011;47622;47.726;3.298;2023-02-22T11:04:17;31.30;;;16.63;;
61702;SDS011;47622;47.726;3.298;2023-02-22T11:09:26;29.58;;;16.40;;
61702;SDS011;47622;47.726;3.298;2023-02-22T11:12:09;27.35;;;16.23;;
61702;SDS011;47622;47.726;3.298;2023-02-22T11:14:40;29.98;;;16.10;;
61702;SDS011;47622;47.726;3.298;2023-02-22T11:17:06;28.15;;;15.38;;
61702;SDS011;47622;47.726;3.298;2023-02-22T11:19:37;30.42;;;16.33;;
61702;SDS011;47622;47.726;3.298;2023-02-22T11:22:10;33.13;;;15.80;;
61702;SDS011;47622;47.726;3.298;2023-02-22T11:24:46;30.02;;;16.02;;
61702;SDS011;47622;47.726;3.298;2023-02-22T11:27:23;26.70;;;15.75;;
61702;SDS011;47622;47.726;3.298;2023-02-22T11:29:53;26.13;;;16.02;;
61702;SDS011;47622;47.726;3.298;2023-02-22T11:32:23;24.75;;;14.85;;
61702;SDS011;47622;47.726;3.298;2023-02-22T11:34:49;30.50;;;15.52;;
61702;SDS011;47622;47.726;3.298;2023-02-22T11:42:36;30.83;;;14.40;;
61702;SDS011;47622;47.726;3.298;2023-02-22T11:45:16;27.67;;;15.57;;
61702;SDS011;47622;47.726;3.298;2023-02-22T11:47:56;26.60;;;14.38;;
61702;SDS011;47622;47.726;3.298;2023-02-22T11:50:30;29.25;;;15.07;;
61702;SDS011;47622;47.726;3.298;2023-02-22T11:58:38;30.15;;;15.18;;
61702;SDS011;47622;47.726;3.298;2023-02-22T12:01:34;27.70;;;14.85;;
61702;SDS011;47622;47.726;3.298;2023-02-22T12:12:24;29.85;;;14.50;;
61702;SDS011;47622;47.726;3.298;2023-02-22T12:20:20;24.60;;;14.32;;
61702;SDS011;47622;47.726;3.298;2023-02-22T12:22:54;20.27;;;13.35;;
61702;SDS011;47622;47.726;3.298;2023-02-22T12:25:47;23.75;;;13.60;;
61702;SDS011;47622;47.726;3.298;2023-02-22T12:28:46;23.15;;;13.57;;
61702;SDS011;47622;47.726;3.298;2023-02-22T12:31:22;26.63;;;13.52;;
61702;SDS011;47622;47.726;3.298;2023-02-22T12:34:06;26.50;;;14.55;;
61702;SDS011;47622;47.726;3.298;2023-02-22T12:36:44;29.60;;;14.82;;
61702;SDS011;47622;47.726;3.298;2023-02-22T12:39:24;23.58;;;13.40;;
61702;SDS011;47622;47.726;3.298;2023-02-22T12:41:58;27.50;;;14.25;;
61702;SDS011;47622;47.726;3.298;2023-02-22T12:44:32;22.05;;;13.25;;
61702;SDS011;47622;47.726;3.298;2023-02-22T12:47:01;22.67;;;12.55;;
61702;SDS011;47622;47.726;3.298;2023-02-22T13:03:11;25.30;;;12.90;;
61702;SDS011;47622;47.726;3.298;2023-02-22T13:05:43;21.73;;;11.23;;
61702;SDS011;47622;47.726;3.298;2023-02-22T13:08:33;18.40;;;10.05;;
61702;SDS011;47622;47.726;3.298;2023-02-22T13:22:08;17.60;;;10.23;;
61702;SDS011;47622;47.726;3.298;2023-02-22T13:27:26;16.58;;;9.35;;
61702;SDS011;47622;47.726;3.298;2023-02-22T13:30:01;16.38;;;8.85;;
61702;SDS011;47622;47.726;3.298;2023-02-22T13:52:30;14.85;;;8.85;;
61702;SDS011;47622;47.726;3.298;2023-02-22T13:55:02;14.52;;;8.65;;
61702;SDS011;47622;47.726;3.298;2023-02-22T13:57:42;20.67;;;9.13;;
61702;SDS011;47622;47.726;3.298;2023-02-22T14:05:49;17.27;;;9.23;;
61702;SDS011;47622;47.726;3.298;2023-02-22T14:18:27;24.27;;;10.30;;
61702;SDS011;47622;47.726;3.298;2023-02-22T14:21:08;20.27;;;10.45;;
61702;SDS011;47622;47.726;3.298;2023-02-22T14:23:37;20.98;;;10.40;;
61702;SDS011;47622;47.726;3.298;2023-02-22T14:28:59;20.35;;;10.50;;
61702;SDS011;47622;47.726;3.298;2023-02-22T14:34:06;20.77;;;9.98;;
61702;SDS011;47622;47.726;3.298;2023-02-22T14:44:53;21.75;;;10.48;;
61702;SDS011;47622;47.726;3.298;2023-02-22T14:50:15;21.23;;;10.57;;
61702;SDS011;47622;47.726;3.298;2023-02-22T14:52:54;22.05;;;10.55;;
61702;SDS011;47622;47.726;3.298;2023-02-22T14:55:25;22.33;;;10.60;;
61702;SDS011;47622;47.726;3.298;2023-02-22T15:00:41;18.10;;;9.50;;
61702;SDS011;47622;47.726;3.298;2023-02-22T15:03:43;17.45;;;8.48;;
61702;SDS011;47622;47.726;3.298;2023-02-22T15:08:32;17.73;;;8.63;;
61702;SDS011;47622;47.726;3.298;2023-02-22T15:10:59;17.35;;;8.63;;
61702;SDS011;47622;47.726;3.298;2023-02-22T15:13:27;15.70;;;8.07;;
61702;SDS011;47622;47.726;3.298;2023-02-22T15:16:03;16.08;;;7.60;;
61702;SDS011;47622;47.726;3.298;2023-02-22T15:18:33;13.90;;;8.43;;
61702;SDS011;47622;47.726;3.298;2023-02-22T15:21:03;17.80;;;8.05;;
61702;SDS011;47622;47.726;3.298;2023-02-22T15:23:48;14.40;;;7.55;;
61702;SDS011;47622;47.726;3.298;2023-02-22T15:26:35;11.90;;;7.70;;
61702;SDS011;47622;47.726;3.298;2023-02-22T15:29:07;13.73;;;7.93;;
61702;SDS011;47622;47.726;3.298;2023-02-22T15:31:37;17.23;;;7.43;;
61702;SDS011;47622;47.726;3.298;2023-02-22T15:34:16;19.33;;;9.30;;
61702;SDS011;47622;47.726;3.298;2023-02-22T15:36:48;14.63;;;8.40;;
61702;SDS011;47622;47.726;3.298;2023-02-22T15:39:28;12.50;;;8.02;;
61702;SDS011;47622;47.726;3.298;2023-02-22T15:44:41;15.75;;;8.45;;
61702;SDS011;47622;47.726;3.298;2023-02-22T15:47:11;15.63;;;8.43;;
61702;SDS011;47622;47.726;3.298;2023-02-22T15:49:41;17.77;;;8.88;;
61702;SDS011;47622;47.726;3.298;2023-02-22T15:52:18;15.07;;;8.57;;
61702;SDS011;47622;47.726;3.298;2023-02-22T15:54:47;15.32;;;7.85;;
61702;SDS011;47622;47.726;3.298;2023-02-22T15:57:15;19.45;;;8.73;;
61702;SDS011;47622;47.726;3.298;2023-02-22T15:59:53;17.90;;;8.27;;
61702;SDS011;47622;47.726;3.298;2023-02-22T16:05:11;31.10;;;15.15;;
61702;SDS011;47622;47.726;3.298;2023-02-22T16:07:44;34.28;;;18.10;;
61702;SDS011;47622;47.726;3.298;2023-02-22T16:10:25;31.17;;;17.10;;
61702;SDS011;47622;47.726;3.298;2023-02-22T16:13:18;33.08;;;16.40;;
61702;SDS011;47622;47.726;3.298;2023-02-22T16:16:05;24.80;;;12.55;;
61702;SDS011;47622;47.726;3.298;2023-02-22T16:18:46;20.23;;;10.77;;
61702;SDS011;47622;47.726;3.298;2023-02-22T16:21:14;20.58;;;10.75;;
61702;SDS011;47622;47.726;3.298;2023-02-22T16:23:42;19.58;;;9.57;;
61702;SDS011;47622;47.726;3.298;2023-02-22T16:29:02;17.00;;;10.30;;
61702;SDS011;47622;47.726;3.298;2023-02-22T16:31:32;16.13;;;8.77;;
61702;SDS011;47622;47.726;3.298;2023-02-22T16:33:59;19.35;;;8.85;;
61702;SDS011;47622;47.726;3.298;2023-02-22T16:36:36;17.50;;;9.77;;
61702;SDS011;47622;47.726;3.298;2023-02-22T16:39:06;17.83;;;9.10;;
61702;SDS011;47622;47.726;3.298;2023-02-22T16:41:32;13.80;;;8.32;;
61702;SDS011;47622;47.726;3.298;2023-02-22T16:43:58;13.38;;;8.68;;
61702;SDS011;47622;47.726;3.298;2023-02-22T16:46:24;16.90;;;8.43;;
61702;SDS011;47622;47.726;3.298;2023-02-22T16:48:49;14.38;;;8.15;;
61702;SDS011;47622;47.726;3.298;2023-02-22T16:51:16;15.20;;;8.73;;
61702;SDS011;47622;47.726;3.298;2023-02-22T16:53:45;15.90;;;8.43;;
61702;SDS011;47622;47.726;3.298;2023-02-22T16:56:13;13.00;;;8.18;;
61702;SDS011;47622;47.726;3.298;2023-02-22T16:58:41;18.00;;;8.20;;
61702;SDS011;47622;47.726;3.298;2023-02-22T17:01:07;17.33;;;8.15;;
61702;SDS011;47622;47.726;3.298;2023-02-22T17:03:33;16.70;;;8.40;;
61702;SDS011;47622;47.726;3.298;2023-02-22T17:05:59;16.38;;;8.80;;
61702;SDS011;47622;47.726;3.298;2023-02-22T17:08:25;12.82;;;7.72;;
61702;SDS011;47622;47.726;3.298;2023-02-22T17:10:51;15.57;;;8.35;;
61702;SDS011;47622;47.726;3.298;2023-02-22T17:13:21;14.75;;;8.23;;
61702;SDS011;47622;47.726;3.298;2023-02-22T17:15:50;18.92;;;9.35;;
61702;SDS011;47622;47.726;3.298;2023-02-22T17:18:18;14.82;;;8.95;;
61702;SDS011;47622;47.726;3.298;2023-02-22T17:20:47;16.15;;;9.23;;
61702;SDS011;47622;47.726;3.298;2023-02-22T17:23:13;16.20;;;9.23;;
61702;SDS011;47622;47.726;3.298;2023-02-22T17:25:40;16.75;;;8.32;;
61702;SDS011;47622;47.726;3.298;2023-02-22T17:28:07;21.17;;;9.75;;
61702;SDS011;47622;47.726;3.298;2023-02-22T17:30:33;18.95;;;9.30;;
61702;SDS011;47622;47.726;3.298;2023-02-22T17:33:00;21.27;;;9.98;;
61702;SDS011;47622;47.726;3.298;2023-02-22T17:35:34;15.25;;;9.50;;
61702;SDS011;47622;47.726;3.298;2023-02-22T17:38:02;19.25;;;10.45;;